Time;durP1;ratioP1;P1;durP2;ratioP2;P2;SDS_P1;SDS_P2;PMS_P1;PMS_P2;Temp;Humidity;BMP_temperature;BMP_pressure;BME280_temperature;BME280_humidity;BME280_pressure;Samples;Min_cycle;Max_cycle;Signal;HPM_P1;HPM_P2
2022/06/19 00:01:20;;;;;;;8.90;5.53;;;14.00;99.90;;;;;;4861771;29;20192;-60
2022/06/19 00:03:55;;;;;;;9.93;5.33;;;13.90;99.90;;;;;;4861293;29;20559;-61
2022/06/19 00:06:22;;;;;;;8.17;5.40;;;13.90;99.90;;;;;;4877603;29;20539;-63
2022/06/19 00:08:48;;;;;;;11.80;5.17;;;13.90;99.90;;;;;;4879791;29;20205;-61
2022/06/19 00:11:18;;;;;;;13.53;6.53;;;13.80;99.90;;;;;;4865668;29;20344;-62
2022/06/19 00:13:44;;;;;;;12.23;5.50;;;13.80;99.90;;;;;;4861337;29;20195;-61
2022/06/19 00:16:10;;;;;;;12.63;6.03;;;13.70;99.90;;;;;;4861150;29;20681;-61
2022/06/19 00:18:38;;;;;;;8.80;5.60;;;13.60;99.90;;;;;;4861068;29;20185;-62
2022/06/19 00:21:08;;;;;;;8.47;5.33;;;13.60;99.90;;;;;;4860943;29;20203;-62
2022/06/19 00:23:34;;;;;;;12.57;6.00;;;13.60;99.90;;;;;;4861298;29;20706;-61
2022/06/19 00:26:01;;;;;;;10.03;5.70;;;13.60;99.90;;;;;;4860280;29;20708;-61
2022/06/19 00:28:27;;;;;;;11.23;6.10;;;13.60;99.90;;;;;;4844288;29;20213;-61
2022/06/19 00:30:52;;;;;;;11.67;6.30;;;13.50;99.90;;;;;;4860722;29;20245;-61
2022/06/19 00:33:19;;;;;;;12.07;6.33;;;13.50;99.90;;;;;;4860805;29;20185;-60
2022/06/19 00:35:46;;;;;;;14.23;6.37;;;13.50;99.90;;;;;;4860413;29;20658;-62
2022/06/19 00:38:12;;;;;;;15.07;6.37;;;13.50;99.90;;;;;;4860857;29;20189;-61
2022/06/19 00:40:38;;;;;;;10.83;6.13;;;13.50;99.90;;;;;;4860737;29;20186;-61
2022/06/19 00:43:04;;;;;;;14.63;6.77;;;13.50;99.90;;;;;;4860901;29;20701;-61
2022/06/19 00:45:42;;;;;;;14.50;5.90;;;13.50;99.90;;;;;;4860795;29;20221;-62
2022/06/19 00:48:15;;;;;;;13.30;7.00;;;13.60;99.90;;;;;;4860669;29;20188;-61
2022/06/19 00:50:43;;;;;;;14.43;7.27;;;13.60;99.90;;;;;;4860608;29;20204;-61
2022/06/19 00:53:15;;;;;;;11.50;6.30;;;13.60;99.90;;;;;;4860984;29;20208;-61
2022/06/19 00:55:46;;;;;;;10.27;6.57;;;13.60;99.90;;;;;;4860524;29;20245;-61
2022/06/19 00:58:18;;;;;;;15.23;6.73;;;13.60;99.90;;;;;;4860899;29;20688;-61
2022/06/19 01:00:50;;;;;;;8.77;6.27;;;13.50;99.90;;;;;;4860302;29;20658;-61
2022/06/19 01:03:20;;;;;;;12.87;6.40;;;13.50;99.90;;;;;;4860776;29;20181;-61
2022/06/19 01:05:46;;;;;;;20.17;7.27;;;13.50;99.90;;;;;;4872294;29;20271;-61
2022/06/19 01:08:12;;;;;;;9.73;6.47;;;13.50;99.90;;;;;;4878927;29;20180;-61
2022/06/19 01:10:42;;;;;;;10.87;6.07;;;13.50;99.90;;;;;;4869231;29;20535;-61
2022/06/19 01:13:10;;;;;;;13.53;6.13;;;13.40;99.90;;;;;;4860334;29;20208;-61
2022/06/19 01:15:38;;;;;;;17.43;6.80;;;13.30;99.90;;;;;;4860344;29;20180;-60
2022/06/19 01:18:06;;;;;;;12.70;7.47;;;13.40;99.90;;;;;;4860390;29;20186;-62
2022/06/19 01:20:34;;;;;;;14.23;6.77;;;13.40;99.90;;;;;;4860172;29;20192;-60
2022/06/19 01:23:11;;;;;;;13.03;6.23;;;13.40;99.90;;;;;;4860275;29;20287;-61
2022/06/19 01:25:39;;;;;;;13.27;6.83;;;13.30;99.90;;;;;;4860054;29;20185;-61
2022/06/19 01:28:45;;;;;;;11.17;6.33;;;13.30;99.90;;;;;;4860143;29;20189;-60
2022/06/19 01:31:27;;;;;;;16.57;7.07;;;13.30;99.90;;;;;;4859962;29;20221;-61
2022/06/19 01:37:04;;;;;;;9.67;5.67;;;13.30;99.90;;;;;;4859950;29;20198;-62
2022/06/19 01:39:42;;;;;;;13.07;6.97;;;13.30;99.90;;;;;;4859909;29;20619;-61
2022/06/19 01:42:08;;;;;;;10.83;6.47;;;13.30;99.90;;;;;;4860532;29;20205;-60
2022/06/19 01:44:35;;;;;;;13.00;6.90;;;13.30;99.90;;;;;;4859855;29;20658;-61
2022/06/19 01:47:02;;;;;;;12.27;6.50;;;13.40;99.90;;;;;;4859985;29;20182;-60
2022/06/19 01:49:33;;;;;;;10.80;6.70;;;13.40;99.90;;;;;;4859902;29;20225;-60
2022/06/19 01:52:01;;;;;;;17.33;6.80;;;13.40;99.90;;;;;;4842887;29;20185;-61
2022/06/19 01:54:38;;;;;;;14.97;6.70;;;13.50;99.90;;;;;;4859951;29;20192;-61
2022/06/19 01:57:08;;;;;;;13.13;6.50;;;13.50;99.90;;;;;;4859744;29;20193;-60
2022/06/19 01:59:35;;;;;;;13.87;6.77;;;13.60;99.90;;;;;;4859891;29;20654;-61
2022/06/19 02:02:04;;;;;;;14.73;6.00;;;13.60;99.90;;;;;;4859736;29;20181;-60
2022/06/19 02:04:31;;;;;;;13.60;6.60;;;13.60;99.90;;;;;;4861925;29;20694;-60
2022/06/19 02:07:01;;;;;;;10.77;5.73;;;13.60;99.90;;;;;;4877941;29;20216;-60
2022/06/19 02:09:27;;;;;;;14.57;7.03;;;13.70;99.90;;;;;;4877411;29;20244;-60
2022/06/19 02:11:53;;;;;;;8.13;6.10;;;13.70;99.90;;;;;;4859762;29;20189;-60
2022/06/19 02:14:20;;;;;;;16.53;7.17;;;13.80;99.90;;;;;;4859590;29;20197;-60
2022/06/19 02:16:48;;;;;;;9.67;5.90;;;13.90;99.90;;;;;;4859348;29;20657;-60
2022/06/19 02:19:15;;;;;;;12.27;5.30;;;13.90;99.90;;;;;;4859512;29;20208;-60
2022/06/19 02:21:52;;;;;;;10.80;5.70;;;14.00;99.90;;;;;;4859321;29;20642;-61
2022/06/19 02:24:20;;;;;;;10.13;5.37;;;14.10;99.90;;;;;;4859601;29;20184;-61
2022/06/19 02:26:48;;;;;;;8.87;5.30;;;14.10;99.90;;;;;;4859289;29;20244;-61
2022/06/19 02:29:16;;;;;;;13.17;5.43;;;14.10;99.90;;;;;;4859557;29;20245;-60
2022/06/19 02:31:45;;;;;;;10.33;4.93;;;14.20;99.90;;;;;;4859226;29;20181;-60
2022/06/19 02:34:26;;;;;;;8.97;5.03;;;14.20;99.90;;;;;;4859344;29;20264;-61
2022/06/19 02:36:56;;;;;;;9.93;4.87;;;14.20;99.90;;;;;;4859295;29;20189;-60
2022/06/19 02:39:31;;;;;;;7.90;4.90;;;14.20;99.90;;;;;;4842859;29;20722;-61
2022/06/19 02:42:15;;;;;;;13.00;5.90;;;14.30;99.90;;;;;;4859411;29;20180;-61
2022/06/19 02:44:41;;;;;;;11.63;5.20;;;14.30;99.90;;;;;;4859184;29;20191;-61
2022/06/19 02:47:08;;;;;;;12.00;5.57;;;14.30;99.90;;;;;;4859866;29;20240;-60
2022/06/19 02:49:35;;;;;;;14.07;5.80;;;14.30;99.90;;;;;;4859791;29;20580;-61
2022/06/19 02:52:02;;;;;;;14.30;5.73;;;14.30;99.90;;;;;;4846098;29;20216;-62
2022/06/19 02:54:28;;;;;;;8.70;5.43;;;14.30;99.90;;;;;;4863152;29;20530;-61
2022/06/19 02:56:54;;;;;;;11.23;5.77;;;14.30;99.90;;;;;;4862526;29;20196;-61
2022/06/19 02:59:19;;;;;;;8.90;5.47;;;14.20;99.90;;;;;;4862790;29;20644;-61
2022/06/19 03:01:45;;;;;;;7.90;5.33;;;14.20;99.90;;;;;;4862345;29;20247;-62
2022/06/19 03:04:18;;;;;;;11.57;5.13;;;14.20;99.90;;;;;;4863001;29;20184;-61
2022/06/19 03:06:44;;;;;;;14.10;5.80;;;14.30;99.90;;;;;;4843951;29;20196;-61
2022/06/19 03:09:09;;;;;;;15.40;5.43;;;14.40;99.90;;;;;;4844038;29;20651;-60
2022/06/19 03:11:35;;;;;;;11.67;5.67;;;14.40;99.90;;;;;;4860782;29;20204;-60
2022/06/19 03:14:01;;;;;;;8.63;5.77;;;14.40;99.90;;;;;;4862246;29;20185;-61
2022/06/19 03:16:26;;;;;;;9.70;5.47;;;14.50;99.90;;;;;;4862729;29;20190;-61
2022/06/19 03:18:52;;;;;;;26.50;7.57;;;14.60;99.90;;;;;;4862089;29;20662;-62
2022/06/19 03:21:18;;;;;;;13.33;5.70;;;14.60;99.90;;;;;;4862677;29;20185;-60
2022/06/19 03:23:44;;;;;;;15.47;5.73;;;14.60;99.90;;;;;;4861660;29;20194;-60
2022/06/19 03:26:10;;;;;;;10.37;6.20;;;14.70;99.90;;;;;;4862237;29;20183;-61
2022/06/19 03:28:36;;;;;;;11.43;5.60;;;14.70;99.90;;;;;;4861949;29;20269;-60
2022/06/19 03:31:02;;;;;;;13.83;5.67;;;14.90;99.90;;;;;;4862261;29;20201;-61
2022/06/19 03:33:28;;;;;;;13.90;5.40;;;15.00;99.90;;;;;;4862430;29;20196;-61
2022/06/19 03:35:53;;;;;;;10.60;5.77;;;15.20;99.90;;;;;;4861828;29;20537;-61
2022/06/19 03:38:20;;;;;;;11.80;5.83;;;15.30;99.90;;;;;;4862401;29;20194;-61
2022/06/19 03:40:46;;;;;;;14.97;5.70;;;15.40;99.90;;;;;;4861635;29;20196;-61
2022/06/19 03:43:12;;;;;;;12.13;5.57;;;15.50;99.90;;;;;;4861824;29;20300;-60
2022/06/19 03:45:38;;;;;;;9.47;5.07;;;15.60;99.90;;;;;;4845309;29;20182;-60
2022/06/19 03:48:04;;;;;;;7.93;5.03;;;15.60;99.90;;;;;;4861567;29;20195;-61
2022/06/19 03:50:30;;;;;;;17.53;5.20;;;15.60;99.90;;;;;;4861560;29;20228;-61
2022/06/19 03:52:56;;;;;;;16.30;5.70;;;15.70;99.90;;;;;;4861303;29;20301;-60
2022/06/19 03:55:21;;;;;;;14.60;4.70;;;15.70;99.90;;;;;;4860792;29;20196;-60
2022/06/19 03:57:47;;;;;;;17.33;5.53;;;15.70;99.90;;;;;;4860669;29;20200;-59
2022/06/19 04:00:16;;;;;;;13.33;5.30;;;15.80;99.90;;;;;;4860869;29;20239;-60
2022/06/19 04:02:43;;;;;;;11.43;5.40;;;15.80;99.90;;;;;;4861132;29;20191;-61
2022/06/19 04:05:10;;;;;;;8.23;4.60;;;15.80;99.90;;;;;;4868902;29;20275;-60
2022/06/19 04:07:43;;;;;;;8.83;4.53;;;15.80;99.90;;;;;;4879799;29;20203;-58
2022/06/19 04:10:09;;;;;;;8.90;4.73;;;15.70;99.90;;;;;;4873874;29;20216;-61
2022/06/19 04:12:35;;;;;;;11.73;5.23;;;15.80;99.90;;;;;;4861350;29;20200;-62
2022/06/19 04:15:01;;;;;;;6.90;4.33;;;15.90;99.90;;;;;;4861211;29;20285;-62
2022/06/19 04:17:26;;;;;;;8.10;4.50;;;16.10;99.90;;;;;;4860419;29;20200;-61
2022/06/19 04:19:52;;;;;;;13.07;4.63;;;16.10;99.90;;;;;;4861174;29;20334;-62
2022/06/19 04:22:18;;;;;;;11.43;4.87;;;16.30;99.90;;;;;;4861413;29;20764;-62
2022/06/19 04:24:43;;;;;;;8.90;4.47;;;16.30;99.90;;;;;;4860667;29;20197;-62
2022/06/19 04:27:09;;;;;;;15.13;4.97;;;16.10;99.90;;;;;;4860949;29;20650;-62
2022/06/19 04:29:36;;;;;;;16.73;5.60;;;16.30;99.90;;;;;;4860843;29;20252;-62
2022/06/19 04:32:01;;;;;;;7.80;4.67;;;16.30;99.90;;;;;;4861103;29;20185;-62
2022/06/19 04:34:27;;;;;;;10.97;4.47;;;16.40;99.90;;;;;;4861183;29;20192;-62
2022/06/19 04:36:53;;;;;;;10.63;4.60;;;16.50;99.90;;;;;;4860602;29;20189;-62
2022/06/19 04:39:19;;;;;;;7.77;4.50;;;16.50;99.90;;;;;;4860723;29;20191;-63
2022/06/19 04:41:44;;;;;;;11.10;4.73;;;16.60;99.90;;;;;;4860614;29;20173;-62
2022/06/19 04:44:16;;;;;;;61.33;11.63;;;16.80;99.90;;;;;;4860726;29;20217;-62
2022/06/19 04:46:43;;;;;;;21.30;5.17;;;16.80;99.90;;;;;;4860696;29;20307;-62
2022/06/19 04:49:09;;;;;;;8.00;4.70;;;16.90;99.90;;;;;;4860889;29;20209;-62
2022/06/19 04:51:35;;;;;;;7.03;4.20;;;17.00;99.90;;;;;;4860959;29;20253;-62
2022/06/19 04:54:00;;;;;;;10.50;4.50;;;17.00;99.90;;;;;;4860197;29;20200;-62
2022/06/19 04:56:26;;;;;;;6.13;3.80;;;17.00;99.90;;;;;;4860890;29;20192;-62
2022/06/19 04:58:52;;;;;;;7.07;4.30;;;17.10;99.90;;;;;;4860445;29;20228;-63
2022/06/19 05:01:27;;;;;;;6.57;4.00;;;17.10;99.90;;;;;;4860745;29;20212;-62
2022/06/19 05:03:57;;;;;;;19.47;5.57;;;17.20;99.90;;;;;;4860230;29;20487;-62
2022/06/19 05:06:24;;;;;;;13.20;4.23;;;17.30;99.90;;;;;;4876598;29;20181;-62
2022/06/19 05:08:50;;;;;;;5.80;4.03;;;17.50;99.90;;;;;;4878707;29;20251;-62
2022/06/19 05:11:16;;;;;;;11.97;5.43;;;17.70;99.90;;;;;;4864321;29;20189;-62
2022/06/19 05:13:43;;;;;;;11.23;4.73;;;17.90;99.90;;;;;;4859678;29;20189;-62
2022/06/19 05:16:15;;;;;;;8.10;4.33;;;18.00;99.90;;;;;;4860056;29;20518;-61
2022/06/19 05:18:42;;;;;;;7.10;3.83;;;17.80;99.90;;;;;;4860397;29;20185;-63
2022/06/19 05:21:09;;;;;;;11.03;4.00;;;18.00;99.90;;;;;;4859869;29;20259;-62
2022/06/19 05:23:39;;;;;;;11.33;4.50;;;18.10;99.90;;;;;;4860183;29;20603;-62
2022/06/19 05:26:11;;;;;;;8.27;4.10;;;18.50;99.90;;;;;;4859944;29;20181;-63
2022/06/19 05:28:37;;;;;;;12.53;4.70;;;18.60;99.90;;;;;;4859521;29;20201;-61
2022/06/19 05:31:04;;;;;;;10.30;3.97;;;18.50;99.90;;;;;;4859943;29;20245;-62
2022/06/19 05:33:31;;;;;;;7.00;3.30;;;18.60;99.90;;;;;;4859677;29;20184;-63
2022/06/19 05:35:57;;;;;;;8.57;3.73;;;18.80;99.90;;;;;;4859227;29;20271;-62
2022/06/19 05:38:24;;;;;;;5.75;3.83;;;19.10;99.90;;;;;;4859322;29;20592;-63
2022/06/19 05:40:51;;;;;;;17.50;6.10;;;19.20;99.90;;;;;;4859543;29;20519;-62
2022/06/19 05:43:18;;;;;;;11.23;4.07;;;19.40;99.90;;;;;;4859336;29;20189;-62
2022/06/19 05:45:55;;;;;;;10.90;4.32;;;19.60;99.90;;;;;;4859887;29;20200;-62
2022/06/19 05:48:21;;;;;;;7.32;3.42;;;19.70;99.90;;;;;;4859798;29;20177;-61
2022/06/19 05:51:05;;;;;;;4.88;3.97;;;19.80;99.90;;;;;;4859655;29;20185;-63
2022/06/19 05:53:36;;;;;;;9.20;4.10;;;20.00;99.90;;;;;;4859533;29;20337;-62
2022/06/19 05:56:03;;;;;;;6.90;3.22;;;20.20;99.90;;;;;;4842502;29;20208;-62
2022/06/19 05:58:29;;;;;;;6.85;3.60;;;20.20;99.90;;;;;;4859258;29;20276;-63
2022/06/19 06:00:55;;;;;;;17.02;4.22;;;20.20;99.90;;;;;;4859342;29;20329;-62
2022/06/19 06:03:22;;;;;;;7.65;3.47;;;20.30;99.90;;;;;;4859378;29;20639;-63
2022/06/19 06:05:49;;;;;;;8.13;3.88;;;20.50;99.90;;;;;;4871650;29;20634;-63
2022/06/19 06:08:16;;;;;;;4.20;3.22;;;20.40;99.90;;;;;;4877802;29;20216;-62
2022/06/19 06:10:42;;;;;;;4.72;3.25;;;20.40;99.90;;;;;;4867542;29;20601;-63
2022/06/19 06:13:08;;;;;;;10.13;4.38;;;20.40;99.90;;;;;;4858978;29;20703;-62
2022/06/19 06:15:34;;;;;;;8.80;5.10;;;20.50;99.90;;;;;;4859282;29;20292;-63
2022/06/19 06:18:02;;;;;;;9.77;4.15;;;20.50;99.90;;;;;;4858941;29;20193;-63
2022/06/19 06:20:28;;;;;;;5.55;3.35;;;20.50;99.90;;;;;;4859381;29;20181;-63
2022/06/19 06:22:55;;;;;;;10.82;3.78;;;20.30;99.90;;;;;;4858991;29;20193;-63
2022/06/19 06:25:20;;;;;;;5.80;3.55;;;20.30;99.90;;;;;;4861017;29;20670;-62
2022/06/19 06:27:47;;;;;;;5.47;3.13;;;20.20;99.90;;;;;;4863132;29;20195;-62
2022/06/19 06:30:13;;;;;;;9.15;3.58;;;20.20;99.90;;;;;;4842735;29;20241;-62
2022/06/19 06:32:39;;;;;;;7.03;4.65;;;20.20;99.90;;;;;;4844724;29;20185;-63
2022/06/19 06:35:05;;;;;;;9.93;3.50;;;20.30;99.90;;;;;;4843914;29;20185;-62
2022/06/19 06:37:31;;;;;;;7.68;3.70;;;20.40;99.90;;;;;;4844127;29;20312;-64
2022/06/19 06:39:57;;;;;;;7.80;3.65;;;20.50;99.90;;;;;;4843727;29;20276;-63
2022/06/19 06:42:23;;;;;;;10.90;3.60;;;20.60;99.90;;;;;;4843553;29;20190;-63
2022/06/19 06:44:48;;;;;;;6.05;3.10;;;20.70;99.90;;;;;;4843852;29;20276;-63
2022/06/19 06:47:14;;;;;;;6.50;2.95;;;20.80;99.90;;;;;;4844332;29;20750;-63
2022/06/19 06:49:40;;;;;;;8.63;3.97;;;20.90;99.90;;;;;;4843013;29;20221;-62
2022/06/19 06:52:08;;;;;;;7.32;3.28;;;21.00;99.90;;;;;;4843894;29;20642;-63
2022/06/19 06:54:38;;;;;;;6.65;3.33;;;21.20;99.90;;;;;;4843771;29;20202;-63
2022/06/19 06:57:06;;;;;;;4.53;2.40;;;21.30;99.90;;;;;;4842465;29;20277;-65
2022/06/19 06:59:32;;;;;;;4.20;2.30;;;21.50;99.90;;;;;;4843952;29;20250;-62
2022/06/19 07:01:58;;;;;;;4.10;2.35;;;21.60;99.50;;;;;;4843754;29;20220;-62
2022/06/19 07:04:24;;;;;;;6.65;2.33;;;21.60;99.40;;;;;;4845197;29;20217;-62
2022/06/19 07:06:50;;;;;;;3.35;2.20;;;21.80;99.60;;;;;;4862171;29;20195;-63
2022/06/19 07:09:16;;;;;;;4.22;2.40;;;21.80;98.20;;;;;;4845136;29;20658;-64
2022/06/19 07:11:43;;;;;;;4.75;2.50;;;21.90;98.30;;;;;;4844271;29;20213;-64
2022/06/19 07:14:10;;;;;;;6.53;2.85;;;22.00;96.20;;;;;;4843080;29;20193;-62
2022/06/19 07:16:36;;;;;;;5.80;2.40;;;22.10;95.50;;;;;;4843629;29;20198;-63
2022/06/19 07:19:02;;;;;;;2.95;2.20;;;22.20;95.70;;;;;;4843522;29;20218;-63
2022/06/19 07:21:28;;;;;;;9.95;2.47;;;22.30;95.90;;;;;;4843017;29;20718;-63
2022/06/19 07:23:54;;;;;;;4.13;2.25;;;22.40;94.00;;;;;;4843276;29;20193;-63
2022/06/19 07:26:22;;;;;;;4.63;2.20;;;22.40;93.90;;;;;;4843036;29;20201;-63
2022/06/19 07:28:48;;;;;;;5.53;2.30;;;22.50;93.80;;;;;;4845760;29;20255;-63
2022/06/19 07:31:14;;;;;;;4.25;2.28;;;22.50;94.10;;;;;;4861354;29;20242;-62
2022/06/19 07:33:40;;;;;;;4.07;2.10;;;22.70;93.50;;;;;;4861245;29;20185;-63
2022/06/19 07:36:08;;;;;;;4.88;1.95;;;22.80;93.40;;;;;;4860643;29;20251;-62
2022/06/19 07:38:34;;;;;;;5.50;2.30;;;22.80;91.90;;;;;;4861369;29;20196;-62
2022/06/19 07:41:00;;;;;;;5.47;2.05;;;22.90;91.70;;;;;;4861160;29;20649;-63
2022/06/19 07:43:27;;;;;;;5.25;2.13;;;23.00;91.10;;;;;;4861293;29;20235;-62
2022/06/19 07:45:53;;;;;;;9.77;2.53;;;23.00;90.10;;;;;;4860811;29;20221;-62
2022/06/19 07:51:03;;;;;;;4.20;2.70;;;23.10;87.50;;;;;;4861362;29;20204;-63
2022/06/19 07:53:29;;;;;;;3.95;2.30;;;23.10;86.50;;;;;;4861193;29;20280;-63
2022/06/19 07:55:55;;;;;;;4.65;2.20;;;23.10;86.70;;;;;;4860805;29;20177;-63
2022/06/19 07:58:21;;;;;;;6.95;2.47;;;23.10;88.40;;;;;;4861068;29;20286;-63
2022/06/19 08:00:47;;;;;;;8.45;1.98;;;23.10;88.40;;;;;;4860931;29;20695;-62
2022/06/19 08:03:12;;;;;;;4.43;2.25;;;23.30;88.90;;;;;;4860970;29;20209;-62
2022/06/19 08:05:43;;;;;;;6.47;2.33;;;23.40;87.80;;;;;;4871696;29;20188;-63
2022/06/19 08:08:18;;;;;;;3.95;1.75;;;23.40;86.50;;;;;;4862405;29;20232;-63
2022/06/19 08:10:47;;;;;;;3.13;1.83;;;23.50;87.60;;;;;;4868936;29;20207;-61
2022/06/19 08:13:14;;;;;;;2.55;2.00;;;23.60;86.00;;;;;;4860235;29;20191;-63
2022/06/19 08:15:41;;;;;;;7.13;2.58;;;23.70;86.00;;;;;;4860294;29;20598;-63
2022/06/19 08:18:09;;;;;;;4.82;2.10;;;23.80;85.90;;;;;;4860278;29;20239;-63
2022/06/19 08:20:35;;;;;;;3.25;2.08;;;24.00;85.80;;;;;;4860482;29;20197;-63
2022/06/19 08:23:03;;;;;;;5.50;2.97;;;24.00;85.40;;;;;;4860648;29;20250;-63
2022/06/19 08:25:29;;;;;;;6.82;3.53;;;24.00;84.40;;;;;;4860525;29;20613;-63
2022/06/19 08:27:54;;;;;;;4.18;1.80;;;24.00;82.60;;;;;;4860507;29;20269;-64
2022/06/19 08:30:33;;;;;;;8.60;2.40;;;24.10;81.00;;;;;;4859926;29;20686;-63
2022/06/19 08:33:00;;;;;;;5.88;1.90;;;24.20;79.10;;;;;;4859756;29;20457;-63
2022/06/19 08:35:27;;;;;;;3.30;1.67;;;24.20;79.40;;;;;;4860489;29;20185;-63
2022/06/19 08:37:57;;;;;;;5.88;1.77;;;24.20;80.10;;;;;;4843834;29;20197;-63
2022/06/19 08:40:32;;;;;;;4.95;2.28;;;24.30;78.30;;;;;;4860081;29;20283;-63
2022/06/19 08:43:25;;;;;;;5.70;2.30;;;24.50;76.60;;;;;;4859975;29;20191;-63
2022/06/19 08:46:02;;;;;;;2.20;1.38;;;24.60;77.70;;;;;;4842799;29;20250;-63
2022/06/19 08:48:30;;;;;;;2.58;1.63;;;24.60;75.00;;;;;;4859278;29;20236;-63
2022/06/19 08:51:07;;;;;;;5.47;1.52;;;24.50;73.90;;;;;;4860041;29;20264;-63
2022/06/19 08:53:51;;;;;;;5.10;1.42;;;24.60;71.50;;;;;;4859830;29;20538;-63
2022/06/19 08:56:42;;;;;;;6.03;1.55;;;24.50;71.00;;;;;;4843346;29;20615;-64
2022/06/19 08:59:23;;;;;;;8.60;2.22;;;24.60;72.80;;;;;;4860077;29;20200;-64
2022/06/19 09:02:11;;;;;;;7.13;2.38;;;24.60;72.20;;;;;;4859817;29;20343;-63
2022/06/19 09:07:51;;;;;;;4.57;1.50;;;25.00;69.50;;;;;;4878653;29;20305;-63
2022/06/19 09:10:52;;;;;;;3.13;1.33;;;25.30;66.60;;;;;;4871055;29;20208;-62
2022/06/19 09:13:42;;;;;;;3.53;1.60;;;25.20;66.00;;;;;;4819704;29;20658;-63
2022/06/19 09:16:27;;;;;;;3.17;1.80;;;25.10;65.00;;;;;;4859415;29;20224;-63
2022/06/19 09:19:12;;;;;;;4.07;1.67;;;25.10;65.50;;;;;;4859571;29;20181;-63
2022/06/19 09:21:38;;;;;;;3.42;1.60;;;25.10;66.00;;;;;;4859520;29;20196;-63
2022/06/19 09:24:22;;;;;;;4.22;1.90;;;25.10;66.30;;;;;;4859244;29;20193;-64
2022/06/19 09:26:56;;;;;;;2.35;1.80;;;25.20;65.80;;;;;;4859235;29;20245;-65
2022/06/19 09:29:52;;;;;;;2.25;1.33;;;25.30;66.20;;;;;;4859104;29;20745;-63
2022/06/19 09:32:33;;;;;;;2.53;1.63;;;25.50;65.80;;;;;;4859055;29;20182;-62
2022/06/19 09:35:11;;;;;;;3.38;1.40;;;25.60;65.30;;;;;;4859130;29;20732;-64
2022/06/19 09:38:01;;;;;;;7.47;1.60;;;25.60;64.20;;;;;;4859583;29;20197;-63
2022/06/19 09:40:34;;;;;;;10.68;2.28;;;25.60;63.90;;;;;;4859301;29;20662;-64
2022/06/19 09:43:12;;;;;;;3.42;1.80;;;25.70;65.90;;;;;;4859175;29;20181;-65
2022/06/19 09:45:41;;;;;;;6.22;1.70;;;25.80;64.30;;;;;;4858953;29;20209;-63
2022/06/19 09:48:30;;;;;;;6.55;2.10;;;25.80;62.70;;;;;;4858593;29;20181;-63
2022/06/19 09:51:31;;;;;;;5.28;1.85;;;25.80;63.70;;;;;;4858952;29;20205;-64
2022/06/19 09:54:10;;;;;;;6.60;2.08;;;26.10;63.30;;;;;;4842490;29;20243;-63
2022/06/19 09:56:59;;;;;;;8.65;1.75;;;26.30;61.50;;;;;;4858761;29;20535;-65
2022/06/19 09:59:27;;;;;;;4.75;2.33;;;26.20;59.70;;;;;;4859069;29;20201;-63
2022/06/19 10:01:58;;;;;;;6.97;1.63;;;26.20;60.30;;;;;;4858758;29;20300;-62
2022/06/19 10:05:05;;;;;;;2.95;1.40;;;26.40;59.70;;;;;;4860098;29;20181;-64
2022/06/19 10:07:39;;;;;;;7.07;1.50;;;26.30;59.40;;;;;;4819615;29;20205;-63
2022/06/19 10:10:35;;;;;;;5.45;1.80;;;26.20;59.50;;;;;;4865349;29;20221;-63
2022/06/19 10:13:08;;;;;;;3.95;1.50;;;26.20;58.80;;;;;;4858662;29;20197;-65
2022/06/19 10:15:36;;;;;;;2.38;1.63;;;26.10;60.20;;;;;;4859399;29;20173;-67
2022/06/19 10:18:13;;;;;;;5.82;2.42;;;26.10;60.20;;;;;;4842217;29;20519;-63
2022/06/19 10:20:46;;;;;;;3.30;1.88;;;26.40;61.60;;;;;;4859080;29;20673;-63
2022/06/19 10:23:12;;;;;;;11.90;2.47;;;26.70;61.80;;;;;;4858354;29;20173;-63
2022/06/19 10:26:03;;;;;;;10.13;2.25;;;27.00;60.80;;;;;;4859194;29;20203;-64
2022/06/19 10:28:55;;;;;;;3.80;1.67;;;27.20;60.10;;;;;;4858325;29;20205;-64
2022/06/19 10:31:55;;;;;;;8.82;2.40;;;27.30;60.00;;;;;;4842226;29;20189;-63
2022/06/19 10:34:35;;;;;;;5.47;2.00;;;27.50;59.80;;;;;;4858362;29;20701;-64
2022/06/19 10:37:41;;;;;;;2.35;1.55;;;27.50;58.70;;;;;;4859100;29;20221;-64
2022/06/19 10:40:19;;;;;;;4.35;1.90;;;27.50;58.50;;;;;;4858802;29;20196;-64
2022/06/19 10:42:50;;;;;;;4.85;1.60;;;27.50;58.30;;;;;;4858994;29;20587;-64
2022/06/19 10:45:22;;;;;;;3.08;1.70;;;27.60;57.70;;;;;;4858456;29;20520;-63
2022/06/19 10:47:59;;;;;;;5.32;1.52;;;27.90;57.50;;;;;;4858701;29;20217;-64
2022/06/19 10:50:36;;;;;;;6.07;2.20;;;28.10;57.20;;;;;;4858283;29;20698;-64
2022/06/19 10:53:21;;;;;;;2.33;1.40;;;28.30;57.70;;;;;;4858524;29;20296;-63
2022/06/19 10:56:10;;;;;;;1.90;1.30;;;28.20;53.70;;;;;;4841973;29;20213;-63
2022/06/19 10:58:36;;;;;;;5.07;1.52;;;27.90;53.90;;;;;;4857198;29;20208;-64
2022/06/19 11:01:05;;;;;;;10.30;1.88;;;27.70;56.30;;;;;;4858570;29;20193;-64
2022/06/19 11:06:38;;;;;;;3.70;1.60;;;28.10;54.40;;;;;;4861975;29;20218;-64
2022/06/19 11:09:09;;;;;;;4.07;1.30;;;27.90;53.80;;;;;;4860007;29;20211;-63
2022/06/19 11:11:38;;;;;;;5.53;1.50;;;27.90;53.20;;;;;;4862509;29;20276;-64
2022/06/19 11:14:12;;;;;;;2.97;1.30;;;28.00;53.50;;;;;;4862381;29;20272;-64
2022/06/19 11:16:58;;;;;;;5.63;1.83;;;28.30;54.60;;;;;;4862054;29;20183;-63
2022/06/19 11:19:40;;;;;;;2.47;1.33;;;28.80;52.50;;;;;;4861404;29;20253;-63
2022/06/19 11:22:24;;;;;;;3.38;1.27;;;29.40;51.00;;;;;;4861723;29;20197;-65
2022/06/19 11:24:52;;;;;;;9.45;1.60;;;29.80;51.80;;;;;;4861886;29;20635;-64
2022/06/19 11:27:21;;;;;;;3.05;1.10;;;31.10;50.00;;;;;;4861904;29;20650;-64
2022/06/19 11:29:49;;;;;;;6.55;1.58;;;32.90;46.80;;;;;;4861487;29;20364;-63
2022/06/19 11:32:21;;;;;;;7.18;1.67;;;34.10;44.70;;;;;;4861629;29;20196;-63
2022/06/19 11:35:03;;;;;;;1.83;1.55;;;35.30;42.90;;;;;;4861909;29;20642;-63
2022/06/19 11:37:37;;;;;;;4.88;1.63;;;36.30;40.40;;;;;;4861378;29;20201;-63
2022/06/19 11:40:05;;;;;;;6.38;1.30;;;37.90;38.60;;;;;;4861784;29;20638;-64
2022/06/19 11:42:37;;;;;;;7.43;1.90;;;38.20;37.50;;;;;;4861360;29;20184;-63
2022/06/19 11:45:23;;;;;;;7.18;1.40;;;39.00;36.00;;;;;;4861647;29;20187;-64
2022/06/19 11:47:54;;;;;;;3.45;1.63;;;39.50;35.90;;;;;;4861813;29;20243;-64
2022/06/19 11:50:32;;;;;;;4.18;1.75;;;40.10;34.40;;;;;;4861215;29;20696;-64
2022/06/19 11:53:01;;;;;;;3.78;1.70;;;40.50;33.60;;;;;;4861430;29;20195;-63
2022/06/19 11:55:48;;;;;;;2.88;1.40;;;40.10;31.20;;;;;;4861017;29;20181;-63
2022/06/19 11:58:29;;;;;;;4.68;1.80;;;39.60;32.60;;;;;;4860823;29;20184;-63
2022/06/19 12:00:58;;;;;;;2.30;1.60;;;40.00;32.60;;;;;;4861480;29;20199;-64
2022/06/19 12:03:30;;;;;;;3.55;1.60;;;41.60;31.40;;;;;;4860908;29;20191;-63
2022/06/19 12:06:01;;;;;;;3.70;1.88;;;42.10;30.50;;;;;;4874465;29;20188;-63
2022/06/19 12:08:57;;;;;;;4.55;1.38;;;42.00;30.00;;;;;;4879399;29;20183;-63
2022/06/19 12:11:46;;;;;;;2.20;1.00;;;42.20;29.10;;;;;;4862718;29;20204;-63
2022/06/19 12:14:13;;;;;;;5.35;1.20;;;42.80;29.20;;;;;;4860607;29;20199;-63
2022/06/19 12:16:39;;;;;;;3.85;1.17;;;42.40;29.10;;;;;;4860983;29;20514;-63
2022/06/19 12:19:29;;;;;;;1.67;1.10;;;42.50;30.00;;;;;;4861040;29;20282;-64
2022/06/19 12:22:01;;;;;;;0.63;0.63;;;43.10;29.00;;;;;;4860660;29;20258;-63
2022/06/19 12:24:39;;;;;;;5.35;1.10;;;43.50;28.30;;;;;;4860504;29;20268;-64
2022/06/19 12:27:12;;;;;;;7.85;1.38;;;44.10;27.40;;;;;;4861112;29;20188;-64
2022/06/19 12:29:55;;;;;;;1.60;1.15;;;44.30;27.90;;;;;;4860682;29;20336;-64
2022/06/19 12:32:28;;;;;;;2.35;1.05;;;44.70;27.50;;;;;;4860451;29;20658;-65
2022/06/19 12:34:58;;;;;;;3.40;1.00;;;44.60;27.30;;;;;;4860642;29;20177;-64
2022/06/19 12:37:27;;;;;;;2.92;1.25;;;44.60;27.70;;;;;;4860430;29;20181;-63
2022/06/19 12:39:54;;;;;;;3.08;1.40;;;43.90;27.70;;;;;;4860519;29;20283;-63
2022/06/19 12:42:36;;;;;;;8.73;1.45;;;43.00;27.50;;;;;;4860301;29;20197;-62
2022/06/19 12:45:35;;;;;;;2.13;1.00;;;43.20;28.00;;;;;;4860460;29;20188;-65
2022/06/19 12:48:23;;;;;;;3.30;1.27;;;44.00;28.30;;;;;;4837807;29;20674;-63
2022/06/19 12:51:00;;;;;;;2.38;1.40;;;44.00;27.60;;;;;;4859808;29;20219;-63
2022/06/19 12:53:34;;;;;;;2.30;1.10;;;43.30;28.50;;;;;;4860068;29;20192;-63
2022/06/19 12:56:34;;;;;;;1.65;1.02;;;43.60;28.00;;;;;;4860062;29;20179;-64
2022/06/19 12:59:17;;;;;;;2.17;1.60;;;44.00;27.60;;;;;;4859946;29;20185;-63
2022/06/19 13:02:17;;;;;;;3.78;1.27;;;43.50;27.30;;;;;;4859935;29;20187;-63
2022/06/19 13:05:03;;;;;;;3.60;1.15;;;43.50;27.90;;;;;;4863751;29;20191;-63
2022/06/19 13:08:08;;;;;;;2.63;1.90;;;44.10;26.90;;;;;;4878654;29;20219;-66
2022/06/19 13:10:46;;;;;;;3.75;1.85;;;44.00;27.00;;;;;;4841278;29;20278;-63
2022/06/19 13:13:36;;;;;;;5.22;1.38;;;43.60;27.30;;;;;;4859838;29;20192;-64
2022/06/19 13:16:12;;;;;;;5.28;1.20;;;43.80;26.60;;;;;;4843276;29;20191;-63
2022/06/19 13:18:52;;;;;;;3.97;1.40;;;43.90;26.80;;;;;;4859452;29;20180;-64